sensor_id;sensor_type;location;lat;lon;timestamp;temperature;humidity
9939;DHT22;5008;50.656;7.188;2023-07-28T04:00:51;17.30;99.90
9939;DHT22;5008;50.656;7.188;2023-07-28T04:03:23;17.30;99.90
9939;DHT22;5008;50.656;7.188;2023-07-28T04:05:49;17.40;99.90
9939;DHT22;5008;50.656;7.188;2023-07-28T04:08:16;17.40;99.90
9939;DHT22;5008;50.656;7.188;2023-07-28T04:10:43;17.40;99.90
9939;DHT22;5008;50.656;7.188;2023-07-28T04:13:19;17.40;99.90
9939;DHT22;5008;50.656;7.188;2023-07-28T04:15:45;17.40;99.90
9939;DHT22;5008;50.656;7.188;2023-07-28T04:18:14;17.40;99.90
9939;DHT22;5008;50.656;7.188;2023-07-28T04:20:40;17.40;99.90
9939;DHT22;5008;50.656;7.188;2023-07-28T04:23:07;17.40;99.90
9939;DHT22;5008;50.656;7.188;2023-07-28T04:25:34;17.40;99.90
9939;DHT22;5008;50.656;7.188;2023-07-28T04:28:01;17.40;99.90
9939;DHT22;5008;50.656;7.188;2023-07-28T04:30:27;17.40;99.90
9939;DHT22;5008;50.656;7.188;2023-07-28T04:32:54;17.40;99.90
9939;DHT22;5008;50.656;7.188;2023-07-28T04:35:25;17.40;99.90
9939;DHT22;5008;50.656;7.188;2023-07-28T04:37:53;17.40;99.90
9939;DHT22;5008;50.656;7.188;2023-07-28T04:40:20;17.40;99.90
9939;DHT22;5008;50.656;7.188;2023-07-28T04:42:47;17.40;99.90
9939;DHT22;5008;50.656;7.188;2023-07-28T04:45:18;17.40;99.90
9939;DHT22;5008;50.656;7.188;2023-07-28T04:47:45;17.40;99.90
9939;DHT22;5008;50.656;7.188;2023-07-28T04:50:11;17.50;99.90
9939;DHT22;5008;50.656;7.188;2023-07-28T04:52:39;17.50;99.90
9939;DHT22;5008;50.656;7.188;2023-07-28T04:55:07;17.50;99.90
9939;DHT22;5008;50.656;7.188;2023-07-28T04:57:34;17.50;99.90
9939;DHT22;5008;50.656;7.188;2023-07-28T05:00:23;17.60;99.90
9939;DHT22;5008;50.656;7.188;2023-07-28T05:02:50;17.60;99.90
9939;DHT22;5008;50.656;7.188;2023-07-28T05:05:32;17.60;99.90
9939;DHT22;5008;50.656;7.188;2023-07-28T05:08:00;17.60;99.90
9939;DHT22;5008;50.656;7.188;2023-07-28T05:10:27;17.60;99.90
9939;DHT22;5008;50.656;7.188;2023-07-28T05:13:01;17.60;99.90
9939;DHT22;5008;50.656;7.188;2023-07-28T05:15:39;17.60;99.90
9939;DHT22;5008;50.656;7.188;2023-07-28T05:18:11;17.60;99.90
9939;DHT22;5008;50.656;7.188;2023-07-28T05:20:38;17.60;99.90
9939;DHT22;5008;50.656;7.188;2023-07-28T05:23:06;17.60;99.90
9939;DHT22;5008;50.656;7.188;2023-07-28T05:25:40;17.70;99.90
9939;DHT22;5008;50.656;7.188;2023-07-28T05:28:07;17.70;99.90
9939;DHT22;5008;50.656;7.188;2023-07-28T05:30:34;17.70;99.90
9939;DHT22;5008;50.656;7.188;2023-07-28T05:33:01;17.70;99.90
9939;DHT22;5008;50.656;7.188;2023-07-28T05:35:33;17.70;99.90
9939;DHT22;5008;50.656;7.188;2023-07-28T05:38:09;17.70;99.90
9939;DHT22;5008;50.656;7.188;2023-07-28T05:40:42;17.70;99.90
9939;DHT22;5008;50.656;7.188;2023-07-28T05:43:09;17.80;99.90
9939;DHT22;5008;50.656;7.188;2023-07-28T05:45:56;17.80;99.90
9939;DHT22;5008;50.656;7.188;2023-07-28T05:48:23;17.80;99.90
9939;DHT22;5008;50.656;7.188;2023-07-28T05:50:49;17.80;99.90
9939;DHT22;5008;50.656;7.188;2023-07-28T05:53:18;17.90;99.90
9939;DHT22;5008;50.656;7.188;2023-07-28T05:55:45;17.90;99.90
9939;DHT22;5008;50.656;7.188;2023-07-28T05:58:11;17.90;99.90
9939;DHT22;5008;50.656;7.188;2023-07-28T06:00:45;18.00;99.90
9939;DHT22;5008;50.656;7.188;2023-07-28T06:03:13;18.00;99.90
9939;DHT22;5008;50.656;7.188;2023-07-28T06:05:40;18.00;99.90
9939;DHT22;5008;50.656;7.188;2023-07-28T06:08:07;18.10;99.90
9939;DHT22;5008;50.656;7.188;2023-07-28T06:10:37;18.10;99.90
9939;DHT22;5008;50.656;7.188;2023-07-28T06:13:04;18.20;99.90
9939;DHT22;5008;50.656;7.188;2023-07-28T06:15:31;18.10;99.90
9939;DHT22;5008;50.656;7.188;2023-07-28T06:18:00;18.20;99.90
9939;DHT22;5008;50.656;7.188;2023-07-28T06:20:27;18.20;99.90
9939;DHT22;5008;50.656;7.188;2023-07-28T06:22:54;18.20;99.90
9939;DHT22;5008;50.656;7.188;2023-07-28T06:25:21;18.30;99.90
9939;DHT22;5008;50.656;7.188;2023-07-28T06:27:49;18.30;99.90
9939;DHT22;5008;50.656;7.188;2023-07-28T06:30:16;18.30;99.90
9939;DHT22;5008;50.656;7.188;2023-07-28T06:32:43;18.30;99.90
9939;DHT22;5008;50.656;7.188;2023-07-28T06:35:18;18.30;99.90
9939;DHT22;5008;50.656;7.188;2023-07-28T06:37:52;18.30;99.90
9939;DHT22;5008;50.656;7.188;2023-07-28T06:40:25;18.40;99.90
9939;DHT22;5008;50.656;7.188;2023-07-28T06:42:54;18.40;99.90
9939;DHT22;5008;50.656;7.188;2023-07-28T06:45:21;18.40;99.90
9939;DHT22;5008;50.656;7.188;2023-07-28T06:47:48;18.50;99.90
9939;DHT22;5008;50.656;7.188;2023-07-28T06:50:15;18.50;99.90
9939;DHT22;5008;50.656;7.188;2023-07-28T06:52:42;18.50;99.90
9939;DHT22;5008;50.656;7.188;2023-07-28T06:55:09;18.60;99.90
9939;DHT22;5008;50.656;7.188;2023-07-28T06:57:42;18.60;99.90
9939;DHT22;5008;50.656;7.188;2023-07-28T07:00:12;18.60;99.90
9939;DHT22;5008;50.656;7.188;2023-07-28T07:02:52;18.70;99.90
9939;DHT22;5008;50.656;7.188;2023-07-28T07:05:18;18.70;99.90
9939;DHT22;5008;50.656;7.188;2023-07-28T07:07:45;18.70;99.90
9939;DHT22;5008;50.656;7.188;2023-07-28T07:10:12;18.70;99.90
9939;DHT22;5008;50.656;7.188;2023-07-28T07:12:39;18.80;99.90
9939;DHT22;5008;50.656;7.188;2023-07-28T07:15:07;18.80;99.90
9939;DHT22;5008;50.656;7.188;2023-07-28T07:17:36;18.90;99.90
9939;DHT22;5008;50.656;7.188;2023-07-28T07:20:03;18.90;99.90
9939;DHT22;5008;50.656;7.188;2023-07-28T07:22:31;18.90;99.90
9939;DHT22;5008;50.656;7.188;2023-07-28T07:24:58;19.00;99.90
9939;DHT22;5008;50.656;7.188;2023-07-28T07:27:25;19.00;99.90
9939;DHT22;5008;50.656;7.188;2023-07-28T07:29:52;19.10;99.90
9939;DHT22;5008;50.656;7.188;2023-07-28T07:32:19;19.10;99.90
9939;DHT22;5008;50.656;7.188;2023-07-28T07:34:47;19.10;99.90
9939;DHT22;5008;50.656;7.188;2023-07-28T07:37:13;19.20;99.90
9939;DHT22;5008;50.656;7.188;2023-07-28T07:39:40;19.20;99.90
9939;DHT22;5008;50.656;7.188;2023-07-28T07:42:10;19.30;99.90
9939;DHT22;5008;50.656;7.188;2023-07-28T07:44:37;19.30;99.90
9939;DHT22;5008;50.656;7.188;2023-07-28T07:47:12;19.30;99.90
9939;DHT22;5008;50.656;7.188;2023-07-28T07:49:39;19.30;99.90
9939;DHT22;5008;50.656;7.188;2023-07-28T07:52:08;19.30;99.90
9939;DHT22;5008;50.656;7.188;2023-07-28T07:54:35;19.40;99.90
9939;DHT22;5008;50.656;7.188;2023-07-28T07:57:02;19.40;99.90
9939;DHT22;5008;50.656;7.188;2023-07-28T07:59:29;19.50;99.90
9939;DHT22;5008;50.656;7.188;2023-07-28T08:01:59;19.50;99.90
9939;DHT22;5008;50.656;7.188;2023-07-28T08:04:28;19.50;99.90
9939;DHT22;5008;50.656;7.188;2023-07-28T08:06:55;19.50;99.90
9939;DHT22;5008;50.656;7.188;2023-07-28T08:09:23;19.50;99.90
9939;DHT22;5008;50.656;7.188;2023-07-28T08:11:50;19.60;99.90
9939;DHT22;5008;50.656;7.188;2023-07-28T08:14:18;19.50;99.90
9939;DHT22;5008;50.656;7.188;2023-07-28T08:16:45;19.50;99.90
9939;DHT22;5008;50.656;7.188;2023-07-28T08:19:12;19.50;99.90
9939;DHT22;5008;50.656;7.188;2023-07-28T08:21:39;19.50;99.90
9939;DHT22;5008;50.656;7.188;2023-07-28T08:24:05;19.50;99.90
9939;DHT22;5008;50.656;7.188;2023-07-28T08:26:35;19.60;99.90
9939;DHT22;5008;50.656;7.188;2023-07-28T08:29:01;19.60;99.90
9939;DHT22;5008;50.656;7.188;2023-07-28T08:31:28;19.60;99.90
9939;DHT22;5008;50.656;7.188;2023-07-28T08:33:55;19.70;99.90
9939;DHT22;5008;50.656;7.188;2023-07-28T08:36:22;19.70;99.90
9939;DHT22;5008;50.656;7.188;2023-07-28T08:38:49;19.70;99.90
9939;DHT22;5008;50.656;7.188;2023-07-28T08:41:15;19.70;99.90
9939;DHT22;5008;50.656;7.188;2023-07-28T08:43:43;19.80;99.90
9939;DHT22;5008;50.656;7.188;2023-07-28T08:46:10;19.80;99.90
9939;DHT22;5008;50.656;7.188;2023-07-28T08:48:37;19.90;99.90
9939;DHT22;5008;50.656;7.188;2023-07-28T08:51:04;19.90;99.90
9939;DHT22;5008;50.656;7.188;2023-07-28T08:53:31;20.00;99.90
9939;DHT22;5008;50.656;7.188;2023-07-28T08:55:58;20.00;99.90
9939;DHT22;5008;50.656;7.188;2023-07-28T08:58:24;20.10;99.90
9939;DHT22;5008;50.656;7.188;2023-07-28T09:00:53;20.20;99.90
9939;DHT22;5008;50.656;7.188;2023-07-28T09:03:20;20.30;99.90
9939;DHT22;5008;50.656;7.188;2023-07-28T09:05:48;20.30;99.90
9939;DHT22;5008;50.656;7.188;2023-07-28T09:08:15;20.40;99.90
9939;DHT22;5008;50.656;7.188;2023-07-28T09:10:43;20.40;99.90
9939;DHT22;5008;50.656;7.188;2023-07-28T09:13:11;20.40;99.90
9939;DHT22;5008;50.656;7.188;2023-07-28T09:15:38;20.40;99.90
9939;DHT22;5008;50.656;7.188;2023-07-28T09:18:09;20.50;99.90
9939;DHT22;5008;50.656;7.188;2023-07-28T09:20:37;20.40;99.90
9939;DHT22;5008;50.656;7.188;2023-07-28T09:23:04;20.40;99.90
9939;DHT22;5008;50.656;7.188;2023-07-28T09:25:31;20.40;99.90
9939;DHT22;5008;50.656;7.188;2023-07-28T09:27:59;20.40;99.90
9939;DHT22;5008;50.656;7.188;2023-07-28T09:30:26;20.30;99.90
9939;DHT22;5008;50.656;7.188;2023-07-28T09:32:54;20.30;99.90
9939;DHT22;5008;50.656;7.188;2023-07-28T09:35:22;20.30;99.90
9939;DHT22;5008;50.656;7.188;2023-07-28T09:37:50;20.30;99.90
9939;DHT22;5008;50.656;7.188;2023-07-28T09:40:19;20.30;99.90
9939;DHT22;5008;50.656;7.188;2023-07-28T09:42:48;20.30;99.90
9939;DHT22;5008;50.656;7.188;2023-07-28T09:45:17;20.30;99.90
9939;DHT22;5008;50.656;7.188;2023-07-28T09:47:45;20.30;99.90
9939;DHT22;5008;50.656;7.188;2023-07-28T09:50:15;20.30;99.90
9939;DHT22;5008;50.656;7.188;2023-07-28T09:52:46;20.30;99.90
9939;DHT22;5008;50.656;7.188;2023-07-28T09:55:13;20.30;99.90
9939;DHT22;5008;50.656;7.188;2023-07-28T09:57:45;20.30;99.90
9939;DHT22;5008;50.656;7.188;2023-07-28T10:00:15;20.30;99.90
9939;DHT22;5008;50.656;7.188;2023-07-28T10:02:44;20.40;99.90
9939;DHT22;5008;50.656;7.188;2023-07-28T10:05:11;20.50;99.90
9939;DHT22;5008;50.656;7.188;2023-07-28T10:07:43;20.60;99.90
9939;DHT22;5008;50.656;7.188;2023-07-28T10:10:11;20.60;99.90
9939;DHT22;5008;50.656;7.188;2023-07-28T10:12:42;20.70;99.90
9939;DHT22;5008;50.656;7.188;2023-07-28T10:15:13;20.80;99.90
9939;DHT22;5008;50.656;7.188;2023-07-28T10:17:44;20.80;99.90
9939;DHT22;5008;50.656;7.188;2023-07-28T10:20:31;20.80;99.90
9939;DHT22;5008;50.656;7.188;2023-07-28T10:23:07;20.70;99.90
9939;DHT22;5008;50.656;7.188;2023-07-28T10:25:35;20.70;99.90
9939;DHT22;5008;50.656;7.188;2023-07-28T10:28:03;20.80;99.90
9939;DHT22;5008;50.656;7.188;2023-07-28T10:30:35;20.80;99.90
9939;DHT22;5008;50.656;7.188;2023-07-28T10:33:03;20.90;99.90
9939;DHT22;5008;50.656;7.188;2023-07-28T10:35:30;20.90;99.90
9939;DHT22;5008;50.656;7.188;2023-07-28T10:37:57;21.00;99.90
9939;DHT22;5008;50.656;7.188;2023-07-28T10:40:29;21.00;99.90
9939;DHT22;5008;50.656;7.188;2023-07-28T10:42:57;21.00;99.90
9939;DHT22;5008;50.656;7.188;2023-07-28T10:45:25;21.00;99.90
9939;DHT22;5008;50.656;7.188;2023-07-28T10:47:53;21.10;99.90
9939;DHT22;5008;50.656;7.188;2023-07-28T10:50:21;21.00;99.90
9939;DHT22;5008;50.656;7.188;2023-07-28T10:52:48;21.00;99.90
9939;DHT22;5008;50.656;7.188;2023-07-28T10:55:16;20.90;99.90
9939;DHT22;5008;50.656;7.188;2023-07-28T10:57:45;20.80;99.90
9939;DHT22;5008;50.656;7.188;2023-07-28T11:00:15;20.80;99.90
9939;DHT22;5008;50.656;7.188;2023-07-28T11:02:43;20.70;99.90
9939;DHT22;5008;50.656;7.188;2023-07-28T11:05:11;20.70;99.90
9939;DHT22;5008;50.656;7.188;2023-07-28T11:07:41;20.60;99.90
9939;DHT22;5008;50.656;7.188;2023-07-28T11:10:09;20.60;99.90
9939;DHT22;5008;50.656;7.188;2023-07-28T11:12:39;20.50;99.90
9939;DHT22;5008;50.656;7.188;2023-07-28T11:15:11;20.50;99.90
9939;DHT22;5008;50.656;7.188;2023-07-28T11:17:39;20.50;99.90
9939;DHT22;5008;50.656;7.188;2023-07-28T11:20:14;20.50;99.90
9939;DHT22;5008;50.656;7.188;2023-07-28T11:22:44;20.50;99.90
9939;DHT22;5008;50.656;7.188;2023-07-28T11:25:12;20.50;99.90
9939;DHT22;5008;50.656;7.188;2023-07-28T11:27:40;20.60;99.90
9939;DHT22;5008;50.656;7.188;2023-07-28T11:30:10;20.60;99.90
9939;DHT22;5008;50.656;7.188;2023-07-28T11:32:44;20.70;99.90
9939;DHT22;5008;50.656;7.188;2023-07-28T11:35:22;20.90;99.90
9939;DHT22;5008;50.656;7.188;2023-07-28T11:37:54;21.10;99.90
9939;DHT22;5008;50.656;7.188;2023-07-28T11:40:23;21.10;99.90
9939;DHT22;5008;50.656;7.188;2023-07-28T11:42:53;21.20;99.90
9939;DHT22;5008;50.656;7.188;2023-07-28T11:45:22;21.10;99.90
9939;DHT22;5008;50.656;7.188;2023-07-28T11:47:55;21.00;99.90
9939;DHT22;5008;50.656;7.188;2023-07-28T11:50:23;21.10;99.90
9939;DHT22;5008;50.656;7.188;2023-07-28T11:52:50;21.00;99.90
9939;DHT22;5008;50.656;7.188;2023-07-28T11:55:18;21.10;99.90
9939;DHT22;5008;50.656;7.188;2023-07-28T11:57:46;21.30;99.90
9939;DHT22;5008;50.656;7.188;2023-07-28T12:00:14;21.40;99.90
9939;DHT22;5008;50.656;7.188;2023-07-28T12:02:44;21.40;99.90
9939;DHT22;5008;50.656;7.188;2023-07-28T12:05:12;21.40;99.90
9939;DHT22;5008;50.656;7.188;2023-07-28T12:07:40;21.40;99.90
9939;DHT22;5008;50.656;7.188;2023-07-28T12:10:07;21.40;99.90
9939;DHT22;5008;50.656;7.188;2023-07-28T12:12:45;21.40;99.90
9939;DHT22;5008;50.656;7.188;2023-07-28T12:15:20;21.30;99.90
9939;DHT22;5008;50.656;7.188;2023-07-28T12:18:10;21.10;99.90
9939;DHT22;5008;50.656;7.188;2023-07-28T12:20:40;20.80;99.90
9939;DHT22;5008;50.656;7.188;2023-07-28T12:23:12;20.60;99.90
9939;DHT22;5008;50.656;7.188;2023-07-28T12:25:39;20.50;99.90
9939;DHT22;5008;50.656;7.188;2023-07-28T12:28:06;20.40;99.90
9939;DHT22;5008;50.656;7.188;2023-07-28T12:30:33;20.40;99.90
9939;DHT22;5008;50.656;7.188;2023-07-28T12:33:02;20.40;99.90
9939;DHT22;5008;50.656;7.188;2023-07-28T12:35:30;20.30;99.90
9939;DHT22;5008;50.656;7.188;2023-07-28T12:38:00;20.40;99.90
9939;DHT22;5008;50.656;7.188;2023-07-28T12:40:29;20.40;99.90
9939;DHT22;5008;50.656;7.188;2023-07-28T12:42:56;20.50;99.90
9939;DHT22;5008;50.656;7.188;2023-07-28T12:45:24;20.40;99.90
9939;DHT22;5008;50.656;7.188;2023-07-28T12:47:51;20.40;99.90
9939;DHT22;5008;50.656;7.188;2023-07-28T12:50:20;20.40;99.90
9939;DHT22;5008;50.656;7.188;2023-07-28T12:52:47;20.50;99.90
9939;DHT22;5008;50.656;7.188;2023-07-28T12:55:15;20.40;99.90
9939;DHT22;5008;50.656;7.188;2023-07-28T12:57:42;20.40;99.90
9939;DHT22;5008;50.656;7.188;2023-07-28T13:00:10;20.40;99.90
9939;DHT22;5008;50.656;7.188;2023-07-28T13:02:39;20.30;99.90
9939;DHT22;5008;50.656;7.188;2023-07-28T13:05:08;20.30;99.90
9939;DHT22;5008;50.656;7.188;2023-07-28T13:07:37;20.30;99.90
9939;DHT22;5008;50.656;7.188;2023-07-28T13:10:06;20.40;99.90
9939;DHT22;5008;50.656;7.188;2023-07-28T13:12:34;20.60;99.90
9939;DHT22;5008;50.656;7.188;2023-07-28T13:15:01;20.70;99.90
9939;DHT22;5008;50.656;7.188;2023-07-28T13:17:27;20.90;99.90
9939;DHT22;5008;50.656;7.188;2023-07-28T13:19:54;21.10;99.90
9939;DHT22;5008;50.656;7.188;2023-07-28T13:22:22;21.20;99.90
9939;DHT22;5008;50.656;7.188;2023-07-28T13:24:50;21.40;99.90
9939;DHT22;5008;50.656;7.188;2023-07-28T13:27:17;21.70;99.90
9939;DHT22;5008;50.656;7.188;2023-07-28T13:29:44;21.80;99.90
9939;DHT22;5008;50.656;7.188;2023-07-28T13:32:18;21.90;99.90
9939;DHT22;5008;50.656;7.188;2023-07-28T13:34:45;21.90;99.90
9939;DHT22;5008;50.656;7.188;2023-07-28T13:37:12;22.00;99.90
9939;DHT22;5008;50.656;7.188;2023-07-28T13:39:39;22.00;99.90
9939;DHT22;5008;50.656;7.188;2023-07-28T13:42:07;22.00;99.90
9939;DHT22;5008;50.656;7.188;2023-07-28T13:44:34;22.20;99.90
9939;DHT22;5008;50.656;7.188;2023-07-28T13:47:01;22.30;99.90
9939;DHT22;5008;50.656;7.188;2023-07-28T13:49:28;22.30;99.90
9939;DHT22;5008;50.656;7.188;2023-07-28T13:51:55;22.20;99.90
9939;DHT22;5008;50.656;7.188;2023-07-28T13:54:21;22.10;99.90
9939;DHT22;5008;50.656;7.188;2023-07-28T13:56:48;22.00;99.90
9939;DHT22;5008;50.656;7.188;2023-07-28T13:59:16;21.90;99.90
9939;DHT22;5008;50.656;7.188;2023-07-28T14:01:43;22.00;99.90
9939;DHT22;5008;50.656;7.188;2023-07-28T14:04:10;21.90;99.90
9939;DHT22;5008;50.656;7.188;2023-07-28T14:06:37;21.90;99.90
9939;DHT22;5008;50.656;7.188;2023-07-28T14:09:03;21.80;99.90
9939;DHT22;5008;50.656;7.188;2023-07-28T14:11:31;21.60;99.90
9939;DHT22;5008;50.656;7.188;2023-07-28T14:13:58;21.50;99.90
9939;DHT22;5008;50.656;7.188;2023-07-28T14:16:26;21.40;99.90
9939;DHT22;5008;50.656;7.188;2023-07-28T14:18:53;21.30;99.90
9939;DHT22;5008;50.656;7.188;2023-07-28T14:21:20;21.20;99.90
9939;DHT22;5008;50.656;7.188;2023-07-28T14:23:46;21.10;99.90
9939;DHT22;5008;50.656;7.188;2023-07-28T14:26:13;21.00;99.90
9939;DHT22;5008;50.656;7.188;2023-07-28T14:28:40;20.90;99.90
9939;DHT22;5008;50.656;7.188;2023-07-28T14:31:07;20.80;99.90
9939;DHT22;5008;50.656;7.188;2023-07-28T14:33:35;20.80;99.90
9939;DHT22;5008;50.656;7.188;2023-07-28T14:36:02;20.80;99.90
9939;DHT22;5008;50.656;7.188;2023-07-28T14:38:28;20.60;99.90
9939;DHT22;5008;50.656;7.188;2023-07-28T14:40:55;20.60;99.90
9939;DHT22;5008;50.656;7.188;2023-07-28T14:43:22;20.50;99.90
9939;DHT22;5008;50.656;7.188;2023-07-28T14:45:50;20.50;99.90
9939;DHT22;5008;50.656;7.188;2023-07-28T14:48:17;20.50;99.90
9939;DHT22;5008;50.656;7.188;2023-07-28T14:50:46;20.50;99.90
9939;DHT22;5008;50.656;7.188;2023-07-28T14:53:32;20.60;99.90
9939;DHT22;5008;50.656;7.188;2023-07-28T14:56:00;20.50;99.90
9939;DHT22;5008;50.656;7.188;2023-07-28T14:58:28;20.50;99.90
9939;DHT22;5008;50.656;7.188;2023-07-28T15:00:56;20.60;99.90
9939;DHT22;5008;50.656;7.188;2023-07-28T15:03:26;20.70;99.90
9939;DHT22;5008;50.656;7.188;2023-07-28T15:05:54;20.80;99.90
9939;DHT22;5008;50.656;7.188;2023-07-28T15:08:21;20.80;99.90
9939;DHT22;5008;50.656;7.188;2023-07-28T15:10:48;20.90;99.90
9939;DHT22;5008;50.656;7.188;2023-07-28T15:13:15;21.00;99.90
9939;DHT22;5008;50.656;7.188;2023-07-28T15:15:42;21.20;99.90
9939;DHT22;5008;50.656;7.188;2023-07-28T15:18:09;21.20;99.90
9939;DHT22;5008;50.656;7.188;2023-07-28T15:20:36;21.30;99.90
9939;DHT22;5008;50.656;7.188;2023-07-28T15:23:04;21.30;99.90
9939;DHT22;5008;50.656;7.188;2023-07-28T15:25:31;21.30;99.90
9939;DHT22;5008;50.656;7.188;2023-07-28T15:27:58;21.30;99.90
9939;DHT22;5008;50.656;7.188;2023-07-28T15:30:31;21.30;99.90
9939;DHT22;5008;50.656;7.188;2023-07-28T15:32:57;21.30;99.90
9939;DHT22;5008;50.656;7.188;2023-07-28T15:35:24;21.30;99.90
9939;DHT22;5008;50.656;7.188;2023-07-28T15:37:51;21.40;99.90
9939;DHT22;5008;50.656;7.188;2023-07-28T15:40:19;21.40;99.90
9939;DHT22;5008;50.656;7.188;2023-07-28T15:42:46;21.50;99.90
9939;DHT22;5008;50.656;7.188;2023-07-28T15:45:13;21.50;99.90
9939;DHT22;5008;50.656;7.188;2023-07-28T15:47:40;21.50;99.90
9939;DHT22;5008;50.656;7.188;2023-07-28T15:50:12;21.40;99.90
9939;DHT22;5008;50.656;7.188;2023-07-28T15:52:39;21.40;99.90
9939;DHT22;5008;50.656;7.188;2023-07-28T15:55:06;21.30;99.90
9939;DHT22;5008;50.656;7.188;2023-07-28T15:57:35;21.30;99.90
9939;DHT22;5008;50.656;7.188;2023-07-28T16:00:02;21.40;99.90
9939;DHT22;5008;50.656;7.188;2023-07-28T16:02:29;21.50;99.90
9939;DHT22;5008;50.656;7.188;2023-07-28T16:04:56;21.50;99.90
9939;DHT22;5008;50.656;7.188;2023-07-28T16:07:23;21.60;99.90
9939;DHT22;5008;50.656;7.188;2023-07-28T16:09:50;21.80;99.90
9939;DHT22;5008;50.656;7.188;2023-07-28T16:12:17;22.10;99.90
9939;DHT22;5008;50.656;7.188;2023-07-28T16:14:45;23.40;99.90
9939;DHT22;5008;50.656;7.188;2023-07-28T16:17:12;24.30;99.90
9939;DHT22;5008;50.656;7.188;2023-07-28T16:19:39;24.40;99.90
9939;DHT22;5008;50.656;7.188;2023-07-28T16:22:06;24.00;99.90
9939;DHT22;5008;50.656;7.188;2023-07-28T16:24:32;23.70;99.90
9939;DHT22;5008;50.656;7.188;2023-07-28T16:27:25;23.50;99.90
9939;DHT22;5008;50.656;7.188;2023-07-28T16:29:54;22.90;99.90
9939;DHT22;5008;50.656;7.188;2023-07-28T16:32:21;22.60;99.90
9939;DHT22;5008;50.656;7.188;2023-07-28T16:34:48;22.40;99.90
9939;DHT22;5008;50.656;7.188;2023-07-28T16:37:14;22.20;99.90
9939;DHT22;5008;50.656;7.188;2023-07-28T16:39:41;22.10;99.90
9939;DHT22;5008;50.656;7.188;2023-07-28T16:42:08;21.90;99.90
9939;DHT22;5008;50.656;7.188;2023-07-28T16:44:37;21.70;99.90
9939;DHT22;5008;50.656;7.188;2023-07-28T16:47:07;21.50;99.90
9939;DHT22;5008;50.656;7.188;2023-07-28T16:49:33;21.40;99.90
9939;DHT22;5008;50.656;7.188;2023-07-28T16:52:00;21.30;99.90
9939;DHT22;5008;50.656;7.188;2023-07-28T16:54:27;21.20;99.90
9939;DHT22;5008;50.656;7.188;2023-07-28T16:56:55;21.10;99.90
9939;DHT22;5008;50.656;7.188;2023-07-28T16:59:23;21.10;99.90
9939;DHT22;5008;50.656;7.188;2023-07-28T17:01:50;21.10;99.90
9939;DHT22;5008;50.656;7.188;2023-07-28T17:04:18;21.10;99.90
9939;DHT22;5008;50.656;7.188;2023-07-28T17:06:45;21.10;99.90
9939;DHT22;5008;50.656;7.188;2023-07-28T17:09:11;21.00;99.90
9939;DHT22;5008;50.656;7.188;2023-07-28T17:11:38;21.00;99.90
9939;DHT22;5008;50.656;7.188;2023-07-28T17:14:05;21.10;99.90
9939;DHT22;5008;50.656;7.188;2023-07-28T17:16:32;21.00;99.90
9939;DHT22;5008;50.656;7.188;2023-07-28T17:18:58;20.90;99.90
9939;DHT22;5008;50.656;7.188;2023-07-28T17:21:27;21.00;99.90
9939;DHT22;5008;50.656;7.188;2023-07-28T17:23:53;20.90;99.90
9939;DHT22;5008;50.656;7.188;2023-07-28T17:26:20;21.10;99.90
9939;DHT22;5008;50.656;7.188;2023-07-28T17:28:47;21.20;99.90
9939;DHT22;5008;50.656;7.188;2023-07-28T17:31:14;21.20;99.90
9939;DHT22;5008;50.656;7.188;2023-07-28T17:33:41;21.30;99.90
9939;DHT22;5008;50.656;7.188;2023-07-28T17:36:07;21.30;99.90
9939;DHT22;5008;50.656;7.188;2023-07-28T17:38:36;21.30;99.90
9939;DHT22;5008;50.656;7.188;2023-07-28T17:41:03;21.40;99.90
9939;DHT22;5008;50.656;7.188;2023-07-28T17:43:29;21.40;99.90
9939;DHT22;5008;50.656;7.188;2023-07-28T17:45:56;21.40;99.90
9939;DHT22;5008;50.656;7.188;2023-07-28T17:48:25;21.30;99.90
9939;DHT22;5008;50.656;7.188;2023-07-28T17:50:53;21.30;99.90
9939;DHT22;5008;50.656;7.188;2023-07-28T17:53:20;21.30;99.90
9939;DHT22;5008;50.656;7.188;2023-07-28T17:55:48;21.30;99.90
9939;DHT22;5008;50.656;7.188;2023-07-28T17:58:15;21.30;99.90
9939;DHT22;5008;50.656;7.188;2023-07-28T18:00:42;21.20;99.90
9939;DHT22;5008;50.656;7.188;2023-07-28T18:03:09;21.10;99.90
9939;DHT22;5008;50.656;7.188;2023-07-28T18:05:36;21.10;99.90
9939;DHT22;5008;50.656;7.188;2023-07-28T18:08:03;21.10;99.90
9939;DHT22;5008;50.656;7.188;2023-07-28T18:10:36;21.00;99.90
9939;DHT22;5008;50.656;7.188;2023-07-28T18:13:05;20.90;99.90
9939;DHT22;5008;50.656;7.188;2023-07-28T18:15:31;20.90;99.90
9939;DHT22;5008;50.656;7.188;2023-07-28T18:17:59;20.80;99.90
9939;DHT22;5008;50.656;7.188;2023-07-28T18:20:26;20.80;99.90
9939;DHT22;5008;50.656;7.188;2023-07-28T18:22:53;20.70;99.90
9939;DHT22;5008;50.656;7.188;2023-07-28T18:25:22;20.80;99.90
9939;DHT22;5008;50.656;7.188;2023-07-28T18:27:48;20.70;99.90
9939;DHT22;5008;50.656;7.188;2023-07-28T18:30:17;20.70;99.90
9939;DHT22;5008;50.656;7.188;2023-07-28T18:32:44;20.70;99.90
9939;DHT22;5008;50.656;7.188;2023-07-28T18:35:11;20.70;99.90
9939;DHT22;5008;50.656;7.188;2023-07-28T18:37:38;20.60;99.90
9939;DHT22;5008;50.656;7.188;2023-07-28T18:40:06;20.50;99.90
9939;DHT22;5008;50.656;7.188;2023-07-28T18:42:33;20.50;99.90
9939;DHT22;5008;50.656;7.188;2023-07-28T18:45:00;20.50;99.90
9939;DHT22;5008;50.656;7.188;2023-07-28T18:47:28;20.40;99.90
9939;DHT22;5008;50.656;7.188;2023-07-28T18:49:58;20.40;99.90
9939;DHT22;5008;50.656;7.188;2023-07-28T18:52:24;20.30;99.90
9939;DHT22;5008;50.656;7.188;2023-07-28T18:54:51;20.30;99.90
9939;DHT22;5008;50.656;7.188;2023-07-28T18:57:18;20.20;99.90
9939;DHT22;5008;50.656;7.188;2023-07-28T18:59:54;20.20;99.90
9939;DHT22;5008;50.656;7.188;2023-07-28T19:02:20;20.10;99.90
9939;DHT22;5008;50.656;7.188;2023-07-28T19:04:49;20.00;99.90
9939;DHT22;5008;50.656;7.188;2023-07-28T19:07:15;20.00;99.90
9939;DHT22;5008;50.656;7.188;2023-07-28T19:09:42;20.00;99.90
9939;DHT22;5008;50.656;7.188;2023-07-28T19:12:09;19.90;99.90
9939;DHT22;5008;50.656;7.188;2023-07-28T19:14:36;20.00;99.90
9939;DHT22;5008;50.656;7.188;2023-07-28T19:17:04;19.90;99.90
9939;DHT22;5008;50.656;7.188;2023-07-28T19:19:31;19.90;99.90
9939;DHT22;5008;50.656;7.188;2023-07-28T19:21:59;19.90;99.90
9939;DHT22;5008;50.656;7.188;2023-07-28T19:24:26;19.90;99.90
9939;DHT22;5008;50.656;7.188;2023-07-28T19:26:53;19.90;99.90
9939;DHT22;5008;50.656;7.188;2023-07-28T19:29:19;19.80;99.90
9939;DHT22;5008;50.656;7.188;2023-07-28T19:31:47;19.80;99.90
9939;DHT22;5008;50.656;7.188;2023-07-28T19:34:14;19.80;99.90
9939;DHT22;5008;50.656;7.188;2023-07-28T19:36:41;19.70;99.90
9939;DHT22;5008;50.656;7.188;2023-07-28T19:39:10;19.70;99.90
9939;DHT22;5008;50.656;7.188;2023-07-28T19:41:36;19.70;99.90
9939;DHT22;5008;50.656;7.188;2023-07-28T19:44:03;19.70;99.90
9939;DHT22;5008;50.656;7.188;2023-07-28T19:46:38;19.70;99.90
9939;DHT22;5008;50.656;7.188;2023-07-28T19:49:05;19.70;99.90
9939;DHT22;5008;50.656;7.188;2023-07-28T19:51:32;19.60;99.90
9939;DHT22;5008;50.656;7.188;2023-07-28T19:53:57;19.60;99.90
9939;DHT22;5008;50.656;7.188;2023-07-28T19:56:26;19.60;99.90
9939;DHT22;5008;50.656;7.188;2023-07-28T19:58:53;19.60;99.90
9939;DHT22;5008;50.656;7.188;2023-07-28T20:01:21;19.60;99.90
9939;DHT22;5008;50.656;7.188;2023-07-28T20:04:05;19.60;99.90
9939;DHT22;5008;50.656;7.188;2023-07-28T20:06:32;19.60;99.90
9939;DHT22;5008;50.656;7.188;2023-07-28T20:09:00;19.60;99.90